Time;durP1;ratioP1;P1;durP2;ratioP2;P2;SDS_P1;SDS_P2;PMS_P1;PMS_P2;Temp;Humidity;BMP_temperature;BMP_pressure;BME280_temperature;BME280_humidity;BME280_pressure;Samples;Min_cycle;Max_cycle;Signal;HPM_P1;HPM_P2
2023/10/28 00:01:45;;;;;;;;;3.67;2.00;;;;;13.08;79.75;99354.38;5038165;28;45347;-40
2023/10/28 00:04:11;;;;;;;;;6.67;2.67;;;;;13.08;80.14;99349.03;5037678;28;46297;-39
2023/10/28 00:06:36;;;;;;;;;4.00;2.67;;;;;13.11;79.84;99353.97;5037708;28;45766;-41
2023/10/28 00:09:01;;;;;;;;;2.00;2.00;;;;;13.12;79.79;99360.97;5038012;28;45416;-42
2023/10/28 00:11:27;;;;;;;;;1.33;1.33;;;;;13.00;79.45;99342.00;5037967;28;45458;-41
2023/10/28 00:13:52;;;;;;;;;1.00;1.00;;;;;13.06;79.84;99343.91;5037818;28;46235;-39
2023/10/28 00:16:17;;;;;;;;;2.67;2.67;;;;;13.04;79.51;99343.25;5037415;28;48632;-40
2023/10/28 00:18:43;;;;;;;;;3.33;1.67;;;;;13.03;79.22;99327.44;5037654;28;45345;-40
2023/10/28 00:21:09;;;;;;;;;2.00;2.00;;;;;12.99;79.18;99333.16;5038086;28;45465;-40
2023/10/28 00:23:35;;;;;;;;;7.67;2.67;;;;;12.98;79.54;99328.84;5036760;28;45382;-40
2023/10/28 00:26:02;;;;;;;;;3.67;1.00;;;;;13.01;79.54;99342.81;5037788;28;45380;-39
2023/10/28 00:28:28;;;;;;;;;1.33;1.00;;;;;13.04;79.52;99345.09;5037833;28;45388;-41
2023/10/28 00:30:53;;;;;;;;;2.00;0.00;;;;;13.04;79.84;99332.56;5037744;28;45419;-38
2023/10/28 00:33:18;;;;;;;;;2.33;1.67;;;;;13.05;79.71;99330.72;5037449;28;46014;-40
2023/10/28 00:35:44;;;;;;;;;2.00;2.00;;;;;13.01;80.01;99329.47;5037437;28;45403;-40
2023/10/28 00:38:09;;;;;;;;;1.00;1.00;;;;;12.89;79.71;99303.34;5037596;28;45344;-40
2023/10/28 00:40:35;;;;;;;;;1.00;1.00;;;;;13.01;80.06;99329.47;5037591;28;46080;-41
2023/10/28 00:43:00;;;;;;;;;5.00;2.33;;;;;13.01;79.70;99327.63;5019139;28;45482;-40
2023/10/28 00:45:28;;;;;;;;;1.33;0.67;;;;;13.02;79.74;99318.63;5037060;28;45464;-42
2023/10/28 00:47:53;;;;;;;;;7.00;1.67;;;;;13.05;80.30;99320.88;5037368;28;45432;-40
2023/10/28 00:50:19;;;;;;;;;2.33;1.33;;;;;13.07;80.64;99316.16;5037353;28;45357;-40
2023/10/28 00:52:48;;;;;;;;;1.00;0.00;;;;;13.04;80.16;99319.22;5037090;28;45498;-40
2023/10/28 00:55:15;;;;;;;;;3.33;2.00;;;;;13.01;80.61;99314.28;5037027;28;45332;-40
2023/10/28 00:57:43;;;;;;;;;4.67;1.33;;;;;12.99;80.42;99303.81;5037449;28;45434;-42
2023/10/28 01:00:10;;;;;;;;;10.33;1.67;;;;;12.95;80.96;99309.72;5037409;28;45234;-41
2023/10/28 01:02:37;;;;;;;;;1.00;1.00;;;;;12.89;80.10;99303.34;5037055;28;47178;-41
2023/10/28 01:05:03;;;;;;;;;1.33;1.00;;;;;12.88;81.04;99323.03;5036750;28;45380;-42
2023/10/28 01:07:31;;;;;;;;;3.00;1.00;;;;;12.86;81.53;99308.25;5037270;28;45322;-39
2023/10/28 01:09:57;;;;;;;;;1.67;1.67;;;;;12.85;81.21;99302.09;5037314;28;45459;-39
2023/10/28 01:12:23;;;;;;;;;2.33;2.00;;;;;12.89;80.89;99314.03;5036742;28;46280;-38
2023/10/28 01:14:50;;;;;;;;;3.00;1.00;;;;;12.86;81.79;99301.06;5036521;28;45383;-39
2023/10/28 01:17:15;;;;;;;;;3.00;0.00;;;;;12.88;81.73;99298.19;5036463;28;45281;-41
2023/10/28 01:19:40;;;;;;;;;2.00;1.33;;;;;12.87;82.06;99294.69;5037095;28;45352;-39
2023/10/28 01:22:05;;;;;;;;;2.00;2.00;;;;;12.90;81.70;99304.16;5036822;28;46300;-41
2023/10/28 01:24:32;;;;;;;;;2.00;1.00;;;;;12.91;82.49;99301.28;5036428;28;51500;-40
2023/10/28 01:26:59;;;;;;;;;6.67;2.00;;;;;12.94;82.22;99305.44;5036858;28;45437;-40
2023/10/28 01:29:25;;;;;;;;;2.33;2.00;;;;;12.93;81.46;99291.22;5036946;28;45611;-41
2023/10/28 01:31:50;;;;;;;;;2.00;1.00;;;;;12.96;82.29;99295.38;5036551;28;46059;-40
2023/10/28 01:34:16;;;;;;;;;3.67;1.00;;;;;12.95;81.68;99291.88;5036869;28;45318;-40
2023/10/28 01:36:43;;;;;;;;;2.00;2.00;;;;;12.95;81.18;99283.03;5036146;28;45506;-40
2023/10/28 01:39:08;;;;;;;;;4.00;2.00;;;;;12.97;81.11;99280.97;5036923;28;45309;-40
2023/10/28 01:41:34;;;;;;;;;2.00;2.00;;;;;12.95;81.94;99288.38;5036091;28;46995;-41
2023/10/28 01:43:59;;;;;;;;;2.00;1.00;;;;;12.95;82.26;99288.38;5036379;28;45449;-41
2023/10/28 01:46:25;;;;;;;;;4.33;1.67;;;;;12.97;82.21;99283.66;5036361;28;45427;-40
2023/10/28 01:48:50;;;;;;;;;5.00;0.00;;;;;12.97;82.31;99284.47;5036706;28;45221;-39
2023/10/28 01:51:15;;;;;;;;;3.00;1.33;;;;;13.00;82.34;99280.59;5036205;28;52315;-41
2023/10/28 01:53:42;;;;;;;;;6.00;3.67;;;;;13.03;82.52;99282.06;5035992;28;45294;-38
2023/10/28 01:56:07;;;;;;;;;1.00;1.00;;;;;13.01;82.36;99287.56;5035914;28;45475;-40
2023/10/28 01:58:32;;;;;;;;;1.33;1.00;;;;;12.98;82.31;99283.47;5018680;28;45463;-40
2023/10/28 02:00:58;;;;;;;;;4.00;1.00;;;;;12.98;82.26;99275.47;5036173;28;45351;-40
2023/10/28 02:03:24;;;;;;;;;3.00;3.00;;;;;12.99;82.11;99282.44;5035872;28;45315;-41
2023/10/28 02:05:49;;;;;;;;;2.00;0.00;;;;;13.00;82.10;99280.59;5035448;28;45508;-40
2023/10/28 02:08:14;;;;;;;;;1.00;1.00;;;;;13.02;81.56;99275.06;5036408;28;45348;-40
2023/10/28 02:10:40;;;;;;;;;2.67;1.67;;;;;12.97;81.94;99280.97;5036234;28;45879;-40
2023/10/28 02:13:05;;;;;;;;;4.00;1.00;;;;;12.99;81.79;99285.13;5035829;28;45373;-38
2023/10/28 02:15:30;;;;;;;;;3.33;1.33;;;;;12.98;81.72;99278.13;5035862;28;45330;-42
2023/10/28 02:17:56;;;;;;;;;1.00;1.00;;;;;12.96;81.85;99279.34;5036322;28;45399;-40
2023/10/28 02:20:21;;;;;;;;;3.33;0.00;;;;;12.95;81.81;99275.84;5034958;28;46431;-40
2023/10/28 02:22:48;;;;;;;;;2.00;1.00;;;;;12.95;81.83;99273.19;5035812;28;45444;-40
2023/10/28 02:25:14;;;;;;;;;3.67;0.00;;;;;12.99;82.04;99278.97;5035947;28;45218;-41
2023/10/28 02:27:39;;;;;;;;;2.67;0.67;;;;;12.96;81.84;99266.81;5036269;28;45402;-41
2023/10/28 02:30:07;;;;;;;;;1.00;1.00;;;;;12.98;81.89;99267.47;5018080;28;45921;-39
2023/10/28 02:32:32;;;;;;;;;1.33;1.33;;;;;12.99;81.79;99263.75;5035642;28;45365;-40
2023/10/28 02:34:59;;;;;;;;;3.00;2.67;;;;;13.02;81.59;99261.69;5035685;28;45386;-40
2023/10/28 02:37:25;;;;;;;;;3.00;1.33;;;;;13.02;81.93;99257.22;5035876;28;45401;-41
2023/10/28 02:39:51;;;;;;;;;1.33;0.33;;;;;13.01;82.13;99254.72;5035531;28;45444;-39
2023/10/28 02:42:16;;;;;;;;;5.00;1.00;;;;;13.02;81.59;99259.88;5035507;28;45508;-41
2023/10/28 02:44:41;;;;;;;;;2.00;1.00;;;;;13.01;81.22;99252.88;5035601;28;47706;-44
2023/10/28 02:47:07;;;;;;;;;1.00;0.00;;;;;13.00;81.88;99253.91;5035817;28;45364;-41
2023/10/28 02:49:36;;;;;;;;;1.00;0.00;;;;;13.01;81.82;99252.06;5035367;28;46118;-40
2023/10/28 02:52:01;;;;;;;;;2.00;1.00;;;;;13.01;82.01;99258.22;5035484;28;45237;-38
2023/10/28 02:54:27;;;;;;;;;0.33;0.33;;;;;13.00;82.15;99243.22;5035466;28;45252;-42
2023/10/28 02:56:52;;;;;;;;;1.67;0.00;;;;;13.00;82.21;99245.91;5035749;28;45479;-39
2023/10/28 02:59:17;;;;;;;;;4.00;0.33;;;;;12.99;82.57;99244.25;5035159;28;54419;-41
2023/10/28 03:01:43;;;;;;;;;4.67;2.00;;;;;12.99;82.50;99242.41;5017282;28;45451;-39
2023/10/28 03:04:09;;;;;;;;;1.00;1.00;;;;;12.99;81.79;99236.25;5035451;28;45829;-41
2023/10/28 03:06:35;;;;;;;;;2.67;1.00;;;;;12.98;82.15;99216.75;5037548;28;45407;-42
2023/10/28 03:09:00;;;;;;;;;2.00;0.67;;;;;12.93;82.28;99216.50;5038410;28;45448;-40
2023/10/28 03:11:25;;;;;;;;;0.67;0.00;;;;;12.85;81.98;99223.84;5038611;28;45455;-41
2023/10/28 03:13:51;;;;;;;;;3.67;2.00;;;;;12.88;82.05;99234.97;5039053;28;45340;-40
2023/10/28 03:16:16;;;;;;;;;2.00;2.00;;;;;12.83;82.55;99241.91;5038639;28;45535;-40
2023/10/28 03:18:41;;;;;;;;;2.33;2.00;;;;;12.80;82.11;99245.78;5038596;28;51090;-38
2023/10/28 03:21:07;;;;;;;;;2.00;1.00;;;;;12.80;82.53;99258.31;5037610;28;45322;-39
2023/10/28 03:23:32;;;;;;;;;0.33;0.00;;;;;12.77;82.09;99258.69;5038813;28;45468;-41
2023/10/28 03:25:58;;;;;;;;;3.00;2.00;;;;;12.82;82.53;99273.13;5039069;28;45332;-40
2023/10/28 03:28:24;;;;;;;;;2.67;0.67;;;;;12.84;82.43;99268.41;5038304;28;46288;-38
2023/10/28 03:30:49;;;;;;;;;7.67;0.67;;;;;12.81;82.88;99265.28;5038350;28;45394;-40
2023/10/28 03:33:15;;;;;;;;;3.67;0.00;;;;;12.76;82.22;99254.41;5038539;28;45352;-40
2023/10/28 03:35:41;;;;;;;;;1.33;0.67;;;;;12.70;81.99;99258.69;5038969;28;45489;-41
2023/10/28 03:38:06;;;;;;;;;0.00;0.00;;;;;12.68;82.37;99256.22;5038241;28;45983;-38
2023/10/28 03:40:31;;;;;;;;;1.00;1.00;;;;;12.69;82.84;99275.72;5038256;28;45487;-39
2023/10/28 03:42:57;;;;;;;;;1.00;1.00;;;;;12.66;82.29;99263.59;5038561;28;45804;-40
2023/10/28 03:45:22;;;;;;;;;2.67;0.00;;;;;12.69;81.77;99260.53;5038513;28;45332;-40
2023/10/28 03:47:48;;;;;;;;;3.00;1.33;;;;;12.69;81.37;99252.53;5037875;28;47159;-40
2023/10/28 03:50:14;;;;;;;;;2.00;1.00;;;;;12.60;82.08;99236.84;5038263;28;45298;-40
2023/10/28 03:52:39;;;;;;;;;1.00;1.00;;;;;12.71;81.85;99260.31;5020524;28;45405;-40
2023/10/28 03:55:05;;;;;;;;;0.33;0.00;;;;;12.70;81.09;99269.34;5038514;28;45488;-40
2023/10/28 03:57:30;;;;;;;;;1.00;0.33;;;;;12.69;82.41;99281.06;5037933;28;46129;-40
2023/10/28 03:59:55;;;;;;;;;1.00;1.00;;;;;12.70;81.95;99272.03;5038199;28;45457;-40
2023/10/28 04:02:21;;;;;;;;;1.33;1.00;;;;;12.73;82.34;99280.47;5038149;28;45395;-39
2023/10/28 04:04:46;;;;;;;;;0.00;0.00;;;;;12.73;81.77;99275.13;5037982;28;45396;-38
2023/10/28 04:07:12;;;;;;;;;1.00;1.00;;;;;12.73;81.94;99274.31;5037987;28;46093;-41
2023/10/28 04:09:37;;;;;;;;;0.00;0.00;;;;;12.66;81.94;99284.09;5020206;28;45447;-48
2023/10/28 04:12:06;;;;;;;;;1.00;1.00;;;;;12.65;81.67;99282.47;5037822;28;45264;-40
2023/10/28 04:14:35;;;;;;;;;2.67;1.00;;;;;12.74;81.98;99291.97;5038051;28;45471;-41
2023/10/28 04:17:01;;;;;;;;;3.67;1.00;;;;;12.73;82.14;99285.81;5036969;28;45451;-39
2023/10/28 04:19:27;;;;;;;;;4.00;0.00;;;;;12.80;82.45;99285.81;5037712;28;45471;-38
2023/10/28 04:21:54;;;;;;;;;3.33;1.00;;;;;12.77;81.71;99299.59;5038078;28;45385;-37
2023/10/28 04:24:19;;;;;;;;;3.33;2.00;;;;;12.80;81.57;99298.34;5037783;28;45345;-42
2023/10/28 04:26:44;;;;;;;;;1.00;1.00;;;;;12.81;81.92;99297.31;5037671;28;45344;-39
2023/10/28 04:29:10;;;;;;;;;1.33;0.33;;;;;12.85;82.15;99306.59;5037867;28;45495;-40
2023/10/28 04:31:35;;;;;;;;;3.00;0.33;;;;;12.85;81.76;99326.13;5037855;28;45263;-40
2023/10/28 04:34:02;;;;;;;;;2.00;2.00;;;;;12.85;81.55;99294.09;5038312;28;45285;-40
2023/10/28 04:36:27;;;;;;;;;4.00;2.00;;;;;12.86;81.85;99300.25;5037458;28;46971;-41
2023/10/28 04:38:53;;;;;;;;;2.67;1.33;;;;;12.80;81.89;99293.00;5037728;28;45416;-40
2023/10/28 04:41:18;;;;;;;;;0.00;0.00;;;;;12.84;81.27;99296.94;5037749;28;45448;-41
2023/10/28 04:43:44;;;;;;;;;1.67;1.00;;;;;12.85;81.16;99315.44;5038100;28;45411;-40
2023/10/28 04:46:10;;;;;;;;;4.00;0.00;;;;;12.84;81.33;99303.09;5037508;28;46135;-42
2023/10/28 04:48:35;;;;;;;;;0.67;0.00;;;;;12.80;81.23;99320.50;5037325;28;45327;-39
2023/10/28 04:51:02;;;;;;;;;2.67;0.33;;;;;12.74;81.31;99307.97;5037602;28;45375;-38
2023/10/28 04:53:28;;;;;;;;;0.00;0.00;;;;;12.67;82.21;99294.56;5036885;28;45626;-42
2023/10/28 04:55:56;;;;;;;;;1.67;1.67;;;;;12.70;82.42;99306.72;5037288;28;46307;-40
2023/10/28 04:58:21;;;;;;;;;4.67;1.33;;;;;12.69;81.83;99300.56;5037069;28;45341;-40
2023/10/28 05:00:47;;;;;;;;;3.67;1.00;;;;;12.68;82.10;99304.25;5037053;28;45316;-43
2023/10/28 05:03:12;;;;;;;;;2.00;0.00;;;;;12.69;82.05;99299.72;5037297;28;45348;-40
2023/10/28 05:05:38;;;;;;;;;1.00;1.00;;;;;12.68;82.17;99304.25;5036695;28;48245;-41
2023/10/28 05:08:03;;;;;;;;;2.00;1.67;;;;;12.69;82.36;99311.22;5037209;28;45376;-41
2023/10/28 05:10:30;;;;;;;;;0.00;0.00;;;;;12.70;81.63;99310.19;5036990;28;45404;-45
2023/10/28 05:12:56;;;;;;;;;1.00;1.00;;;;;12.78;81.85;99313.75;5036805;28;45579;-40
2023/10/28 05:15:21;;;;;;;;;4.00;1.00;;;;;12.80;82.16;99317.03;5036836;28;45395;-42
2023/10/28 05:17:46;;;;;;;;;2.33;2.00;;;;;12.80;82.03;99309.84;5036604;28;47026;-41
2023/10/28 05:20:12;;;;;;;;;3.33;0.67;;;;;12.81;81.58;99313.31;5036919;28;45438;-41
2023/10/28 05:22:39;;;;;;;;;2.00;0.33;;;;;12.80;81.91;99307.16;5037121;28;45387;-43
2023/10/28 05:25:07;;;;;;;;;2.00;2.00;;;;;12.81;81.76;99311.50;5036780;28;45440;-43
2023/10/28 05:27:33;;;;;;;;;3.33;1.00;;;;;12.87;81.48;99318.72;5036594;28;45465;-41
2023/10/28 05:29:59;;;;;;;;;1.33;0.67;;;;;12.88;81.94;99315.03;5035830;28;45506;-41
2023/10/28 05:32:24;;;;;;;;;1.67;0.00;;;;;12.90;81.62;99320.19;5036619;28;45388;-42
2023/10/28 05:34:50;;;;;;;;;1.00;1.00;;;;;12.89;81.51;99306.03;5036528;28;45947;-40
2023/10/28 05:37:15;;;;;;;;;2.00;0.67;;;;;12.89;81.55;99321.19;5036511;28;45416;-41
2023/10/28 05:39:40;;;;;;;;;2.33;2.33;;;;;12.86;81.43;99322.41;5036696;28;45336;-39
2023/10/28 05:42:07;;;;;;;;;3.67;1.00;;;;;12.86;81.27;99313.59;5036741;28;45281;-40
2023/10/28 05:44:32;;;;;;;;;2.00;1.00;;;;;12.83;81.67;99320.13;5036381;28;46072;-39
2023/10/28 05:46:59;;;;;;;;;4.00;2.00;;;;;12.83;81.76;99319.31;5036056;28;45451;-41
2023/10/28 05:49:25;;;;;;;;;1.00;0.67;;;;;12.82;81.89;99326.50;5035885;28;45250;-41
2023/10/28 05:51:50;;;;;;;;;1.00;1.00;;;;;12.82;81.50;99320.34;5036608;28;45381;-42
2023/10/28 05:54:15;;;;;;;;;3.00;1.00;;;;;12.82;81.54;99331.84;5036201;28;46090;-43
2023/10/28 05:56:41;;;;;;;;;5.00;2.67;;;;;12.83;81.81;99327.31;5036335;28;45408;-42
2023/10/28 05:59:08;;;;;;;;;3.67;1.00;;;;;12.85;81.98;99331.44;5036496;28;45392;-38
2023/10/28 06:01:36;;;;;;;;;6.00;1.00;;;;;12.86;81.69;99342.94;5036675;28;45420;-40
2023/10/28 06:04:02;;;;;;;;;4.00;1.00;;;;;12.75;81.79;99312.28;5037207;28;46192;-40
2023/10/28 06:06:27;;;;;;;;;7.67;1.00;;;;;12.91;81.42;99335.16;5036564;28;45449;-40
2023/10/28 06:08:54;;;;;;;;;7.00;3.00;;;;;12.89;81.46;99331.84;5036932;28;45311;-40
2023/10/28 06:11:19;;;;;;;;;6.00;1.00;;;;;12.91;81.03;99333.31;5036788;28;45359;-41
2023/10/28 06:13:45;;;;;;;;;3.67;0.67;;;;;12.93;81.16;99341.13;5036465;28;47124;-41
2023/10/28 06:16:10;;;;;;;;;1.33;1.00;;;;;12.94;81.28;99326.78;5036511;28;45329;-41
2023/10/28 06:18:39;;;;;;;;;3.00;2.00;;;;;12.93;81.08;99338.44;5036056;28;45369;-40
2023/10/28 06:21:04;;;;;;;;;3.33;1.33;;;;;12.91;81.22;99346.66;5035039;28;45569;-41
2023/10/28 06:23:30;;;;;;;;;5.00;3.00;;;;;12.90;81.25;99344.22;5035916;28;45536;-41
2023/10/28 06:25:55;;;;;;;;;7.00;1.67;;;;;12.89;81.44;99345.19;5036176;28;45345;-45
2023/10/28 06:28:21;;;;;;;;;1.00;1.00;;;;;12.91;81.32;99343.19;5035957;28;45364;-41
2023/10/28 06:30:50;;;;;;;;;3.00;1.67;;;;;12.91;81.86;99343.19;5036429;28;45461;-42
2023/10/28 06:33:17;;;;;;;;;1.00;1.00;;;;;12.93;81.29;99352.63;5035633;28;47360;-41
2023/10/28 06:35:44;;;;;;;;;2.00;2.00;;;;;12.94;81.31;99343.63;5036027;28;45341;-42
2023/10/28 06:38:09;;;;;;;;;1.00;1.00;;;;;12.97;81.41;99353.06;5036126;28;45446;-43
2023/10/28 06:40:37;;;;;;;;;3.67;0.67;;;;;12.97;81.38;99345.03;5036755;28;45403;-41
2023/10/28 06:43:04;;;;;;;;;1.00;1.00;;;;;13.01;80.70;99354.31;5039221;28;53393;-41
2023/10/28 06:45:29;;;;;;;;;2.67;1.00;;;;;13.01;80.65;99354.31;5039308;28;45371;-39
2023/10/28 06:47:55;;;;;;;;;1.00;1.00;;;;;13.02;80.96;99360.47;5039177;28;45469;-42
2023/10/28 06:50:20;;;;;;;;;3.00;3.00;;;;;13.02;80.77;99361.31;5039654;28;45473;-40
2023/10/28 06:52:48;;;;;;;;;3.67;1.00;;;;;13.05;81.01;99366.25;5039519;28;46689;-41
2023/10/28 06:55:14;;;;;;;;;2.67;2.00;;;;;13.04;80.87;99361.94;5039857;28;45420;-41
2023/10/28 06:57:41;;;;;;;;;3.67;2.00;;;;;13.07;80.31;99360.72;5040184;28;45467;-41
2023/10/28 07:00:12;;;;;;;;;4.67;3.00;;;;;13.07;80.92;99368.75;5040250;28;45371;-40
2023/10/28 07:02:37;;;;;;;;;2.33;0.00;;;;;13.08;80.72;99362.38;5038640;28;47175;-41
2023/10/28 07:05:03;;;;;;;;;3.33;1.00;;;;;13.06;80.80;99359.91;5038807;28;45222;-43
2023/10/28 07:07:29;;;;;;;;;5.67;3.00;;;;;13.08;80.75;99373.06;5039200;28;45408;-42
2023/10/28 07:09:54;;;;;;;;;3.33;2.00;;;;;13.08;80.65;99367.72;5039072;28;45408;-43
2023/10/28 07:12:20;;;;;;;;;5.00;2.00;;;;;13.08;81.14;99378.41;5038857;28;45988;-46
2023/10/28 07:14:45;;;;;;;;;4.00;2.00;;;;;13.08;80.76;99379.22;5038785;28;45387;-44
2023/10/28 07:17:11;;;;;;;;;7.00;1.00;;;;;13.09;80.81;99380.03;5038800;28;45363;-45
2023/10/28 07:19:37;;;;;;;;;0.33;0.00;;;;;13.09;81.14;99380.84;5039371;28;45376;-41
2023/10/28 07:22:02;;;;;;;;;3.00;0.33;;;;;13.10;80.65;99376.34;5038806;28;46857;-44
2023/10/28 07:24:28;;;;;;;;;2.00;2.00;;;;;13.13;81.37;99384.78;5038767;28;45368;-41
2023/10/28 07:26:53;;;;;;;;;8.33;2.33;;;;;13.15;81.08;99392.63;5038838;28;45356;-41
2023/10/28 07:29:18;;;;;;;;;2.33;1.00;;;;;13.14;80.97;99391.75;5038875;28;45394;-40
2023/10/28 07:31:43;;;;;;;;;1.00;1.00;;;;;13.16;81.12;99394.25;5038609;28;46858;-40
2023/10/28 07:34:09;;;;;;;;;1.67;1.67;;;;;13.16;81.10;99395.06;5020583;28;45263;-38
2023/10/28 07:36:34;;;;;;;;;2.33;1.33;;;;;13.15;80.97;99389.94;5038531;28;45431;-43
2023/10/28 07:39:01;;;;;;;;;1.67;1.67;;;;;13.19;80.64;99402.72;5038745;28;45385;-43
2023/10/28 07:41:28;;;;;;;;;2.33;1.00;;;;;13.15;81.09;99420.13;5038258;28;46373;-42
2023/10/28 07:43:53;;;;;;;;;3.00;2.00;;;;;13.11;80.92;99394.03;5038371;28;45262;-40
2023/10/28 07:46:19;;;;;;;;;2.00;1.00;;;;;13.19;80.73;99415.25;5020703;28;45452;-41
2023/10/28 07:48:45;;;;;;;;;2.00;1.33;;;;;13.19;80.86;99418.72;5038635;28;45467;-42
2023/10/28 07:51:13;;;;;;;;;8.00;2.00;;;;;13.19;80.56;99428.59;5038423;28;46107;-42
2023/10/28 07:53:39;;;;;;;;;9.00;2.00;;;;;13.17;80.91;99420.75;5037459;28;45336;-41
2023/10/28 07:56:04;;;;;;;;;3.33;1.00;;;;;13.15;80.85;99433.50;5020413;28;45328;-41
2023/10/28 07:58:29;;;;;;;;;0.67;0.00;;;;;13.16;80.90;99451.16;5038571;28;45299;-40
2023/10/28 08:00:55;;;;;;;;;1.67;1.67;;;;;13.05;80.58;99418.81;5037863;28;51045;-43
2023/10/28 08:03:20;;;;;;;;;1.33;0.67;;;;;13.16;81.29;99445.81;5038153;28;45364;-40
2023/10/28 08:05:45;;;;;;;;;6.00;3.00;;;;;13.14;81.06;99439.00;5038124;28;46104;-45
2023/10/28 08:08:11;;;;;;;;;0.67;0.00;;;;;13.16;81.71;99436.97;5020567;28;45364;-44
2023/10/28 08:10:40;;;;;;;;;2.00;2.00;;;;;13.18;81.02;99433.06;5037125;28;45238;-40
2023/10/28 08:13:06;;;;;;;;;3.00;2.00;;;;;13.21;81.39;99435.38;5037870;28;45469;-42
2023/10/28 08:15:31;;;;;;;;;3.00;2.00;;;;;13.19;81.28;99442.75;5029923;28;45420;-44
2023/10/28 08:17:56;;;;;;;;;3.67;3.00;;;;;13.22;81.39;99437.03;5037943;28;45397;-41
2023/10/28 08:20:22;;;;;;;;;1.00;1.00;;;;;13.27;81.21;99435.63;5037891;28;46291;-42
2023/10/28 08:22:47;;;;;;;;;0.33;0.00;;;;;13.27;81.33;99444.47;5038068;28;45337;-42
2023/10/28 08:25:16;;;;;;;;;2.00;2.00;;;;;13.31;81.22;99435.03;5038161;28;45364;-39
2023/10/28 08:27:47;;;;;;;;;6.33;3.33;;;;;13.25;81.00;99421.66;5038215;28;45312;-41
2023/10/28 08:30:17;;;;;;;;;4.00;2.00;;;;;13.36;80.85;99432.63;5037771;28;47016;-39
2023/10/28 08:32:43;;;;;;;;;3.00;3.00;;;;;13.37;81.36;99441.47;5037593;28;45234;-43
2023/10/28 08:35:09;;;;;;;;;2.67;1.00;;;;;13.40;81.30;99438.38;5037787;28;45374;-44
2023/10/28 08:37:35;;;;;;;;;3.00;3.00;;;;;13.41;81.27;99435.53;5019723;28;45349;-41
2023/10/28 08:40:00;;;;;;;;;2.00;1.67;;;;;13.40;80.90;99438.38;5037653;28;46143;-41
2023/10/28 08:42:25;;;;;;;;;7.00;1.33;;;;;13.40;80.93;99435.69;5037526;28;45412;-41
2023/10/28 08:44:52;;;;;;;;;2.33;2.00;;;;;13.43;81.01;99428.13;5037686;28;45427;-40
2023/10/28 08:47:23;;;;;;;;;1.00;1.00;;;;;13.46;80.65;99429.59;5037850;28;45264;-42
2023/10/28 08:49:51;;;;;;;;;1.67;1.00;;;;;13.46;80.58;99418.91;5037317;28;46173;-42
2023/10/28 08:52:21;;;;;;;;;2.00;1.33;;;;;13.48;80.66;99411.50;5037330;28;45463;-39
2023/10/28 08:54:47;;;;;;;;;6.00;1.00;;;;;13.53;80.80;99408.25;5037312;28;45307;-42
2023/10/28 08:57:14;;;;;;;;;0.33;0.33;;;;;13.58;79.96;99411.16;5037661;28;45380;-40
2023/10/28 08:59:39;;;;;;;;;7.67;2.00;;;;;13.63;80.25;99401.50;5019336;28;46347;-39
2023/10/28 09:02:09;;;;;;;;;4.33;2.33;;;;;13.68;79.77;99400.91;5037067;28;45435;-40
2023/10/28 09:04:35;;;;;;;;;6.33;3.00;;;;;13.71;80.11;99398.66;5036774;28;45403;-39
2023/10/28 09:07:02;;;;;;;;;2.00;0.33;;;;;13.75;79.78;99391.06;5037296;28;45376;-40
2023/10/28 09:09:27;;;;;;;;;4.00;2.00;;;;;13.73;79.66;99393.09;5037058;28;46289;-41
2023/10/28 09:11:59;;;;;;;;;3.00;1.00;;;;;13.71;79.77;99387.16;5018991;28;45309;-41
2023/10/28 09:14:25;;;;;;;;;3.33;1.00;;;;;13.72;79.92;99383.44;5037230;28;45278;-49
2023/10/28 09:16:51;;;;;;;;;5.00;2.00;;;;;13.77;79.32;99391.69;5037187;28;45187;-38
2023/10/28 09:19:21;;;;;;;;;2.00;2.00;;;;;13.81;79.25;99390.25;5036811;28;46709;-42
2023/10/28 09:21:49;;;;;;;;;4.00;0.67;;;;;13.79;79.45;99381.63;5036955;28;45361;-42
2023/10/28 09:24:16;;;;;;;;;1.00;1.00;;;;;13.86;79.35;99382.50;5037010;28;45286;-40
2023/10/28 09:26:41;;;;;;;;;2.33;2.00;;;;;13.87;79.34;99389.47;5037356;28;45350;-44
2023/10/28 09:29:06;;;;;;;;;4.00;1.00;;;;;13.92;79.04;99383.53;5036638;28;46007;-44
2023/10/28 09:31:33;;;;;;;;;5.00;2.33;;;;;13.92;79.11;99386.19;5036767;28;45439;-41
2023/10/28 09:33:59;;;;;;;;;1.67;1.67;;;;;13.87;78.84;99377.97;5019212;28;45316;-45
2023/10/28 09:36:24;;;;;;;;;3.33;1.33;;;;;13.92;78.85;99391.53;5037043;28;45805;-42
2023/10/28 09:38:51;;;;;;;;;2.33;1.00;;;;;13.88;78.88;99384.94;5036912;28;45930;-40
2023/10/28 09:41:19;;;;;;;;;1.00;1.00;;;;;13.87;78.71;99372.63;5035886;28;45321;-41
2023/10/28 09:43:44;;;;;;;;;1.00;0.00;;;;;13.91;78.71;99371.19;5036918;28;45455;-42
2023/10/28 09:46:10;;;;;;;;;1.00;0.67;;;;;13.93;78.77;99374.47;5037374;28;45349;-42
2023/10/28 09:48:39;;;;;;;;;2.00;1.00;;;;;13.95;78.59;99383.13;5036454;28;45955;-40
2023/10/28 09:51:05;;;;;;;;;1.00;1.00;;;;;13.97;78.54;99367.69;5036698;28;45450;-41
2023/10/28 09:53:36;;;;;;;;;1.00;0.00;;;;;14.01;78.20;99360.09;5036645;28;45372;-41
2023/10/28 09:56:03;;;;;;;;;1.00;1.00;;;;;14.03;78.23;99352.69;5036844;28;45632;-39
2023/10/28 09:58:36;;;;;;;;;6.67;1.00;;;;;14.07;78.32;99351.25;5036215;28;46951;-40
2023/10/28 10:01:29;;;;;;;;;1.67;1.67;;;;;14.08;78.20;99355.59;5036353;28;45369;-42
2023/10/28 10:04:13;;;;;;;;;0.00;0.00;;;;;14.12;78.12;99335.44;5036465;28;45336;-40
2023/10/28 10:06:39;;;;;;;;;1.00;1.00;;;;;14.16;77.60;99358.91;5036730;28;45562;-40
2023/10/28 10:09:12;;;;;;;;;2.00;1.00;;;;;14.19;77.42;99361.13;5036230;28;46461;-40
2023/10/28 10:11:42;;;;;;;;;1.67;1.00;;;;;14.21;77.24;99351.06;5036329;28;45530;-40
2023/10/28 10:14:10;;;;;;;;;2.33;1.00;;;;;14.29;77.26;99354.59;5036490;28;45731;-39
2023/10/28 10:17:03;;;;;;;;;3.00;1.00;;;;;14.36;76.67;99356.22;5035815;28;45339;-41
2023/10/28 10:19:35;;;;;;;;;1.00;1.00;;;;;14.41;76.45;99363.63;5036087;28;46157;-40
2023/10/28 10:22:06;;;;;;;;;3.67;1.00;;;;;14.47;76.57;99387.72;5036407;28;45546;-41
2023/10/28 10:24:31;;;;;;;;;0.67;0.67;;;;;14.47;75.34;99386.91;5036075;28;45450;-44
2023/10/28 10:27:01;;;;;;;;;3.00;1.00;;;;;14.47;75.58;99405.63;5035827;28;45543;-41
2023/10/28 10:29:29;;;;;;;;;3.00;1.00;;;;;14.51;75.70;99403.41;5035934;28;45406;-42
2023/10/28 10:31:55;;;;;;;;;2.67;1.00;;;;;14.49;75.66;99433.03;5035925;28;45336;-40
2023/10/28 10:34:37;;;;;;;;;0.67;0.67;;;;;14.46;75.76;99417.38;5036115;28;45386;-41
2023/10/28 10:37:03;;;;;;;;;2.67;1.00;;;;;14.48;75.71;99420.66;5036070;28;45412;-40
2023/10/28 10:39:42;;;;;;;;;0.67;0.67;;;;;14.45;75.28;99427.25;5035739;28;45242;-40
2023/10/28 10:42:08;;;;;;;;;1.67;1.67;;;;;14.43;75.21;99429.28;5035997;28;45262;-41
2023/10/28 10:44:36;;;;;;;;;1.00;1.00;;;;;14.47;75.01;99421.69;5035777;28;45468;-41
2023/10/28 10:47:03;;;;;;;;;2.67;1.00;;;;;14.48;75.22;99418.81;5035871;28;45340;-41
2023/10/28 10:49:31;;;;;;;;;0.00;0.00;;;;;14.52;74.89;99429.13;5035771;28;47106;-41
2023/10/28 10:52:03;;;;;;;;;2.33;2.33;;;;;14.52;75.11;99408.53;5035613;28;45360;-42
2023/10/28 10:54:38;;;;;;;;;2.00;2.00;;;;;14.54;74.92;99414.53;5035967;28;45452;-41
2023/10/28 10:57:04;;;;;;;;;0.33;0.33;;;;;14.55;74.26;99380.56;5018233;28;45330;-41
2023/10/28 10:59:33;;;;;;;;;5.00;2.33;;;;;14.58;74.23;99380.13;5035696;28;45828;-41
2023/10/28 11:02:03;;;;;;;;;2.00;2.00;;;;;14.59;74.11;99384.47;5035722;28;45440;-41
2023/10/28 11:04:29;;;;;;;;;5.67;4.33;;;;;14.64;74.59;99388.16;5035315;28;45392;-41
2023/10/28 11:06:56;;;;;;;;;3.33;2.00;;;;;14.63;74.07;99388.38;5017802;28;45493;-40
2023/10/28 11:09:22;;;;;;;;;3.33;1.00;;;;;14.67;73.70;99378.91;5035369;28;46419;-40
2023/10/28 11:11:47;;;;;;;;;0.00;0.00;;;;;14.70;74.33;99383.84;5034515;28;45695;-41
2023/10/28 11:14:13;;;;;;;;;3.00;0.67;;;;;14.66;73.70;99375.41;5034980;28;45431;-40
2023/10/28 11:16:41;;;;;;;;;2.00;1.00;;;;;14.65;73.26;99383.63;5035768;28;45350;-41
2023/10/28 11:19:11;;;;;;;;;1.00;1.00;;;;;14.65;72.83;99383.63;5035253;28;45430;-39
2023/10/28 11:21:41;;;;;;;;;0.00;0.00;;;;;14.64;73.08;99384.69;5017455;28;45499;-40
2023/10/28 11:24:08;;;;;;;;;2.00;1.00;;;;;14.71;72.91;99380.97;5035478;28;45537;-40
2023/10/28 11:26:34;;;;;;;;;2.67;1.33;;;;;14.74;72.96;99382.38;5028117;28;45301;-45
2023/10/28 11:29:00;;;;;;;;;2.00;0.00;;;;;14.74;72.26;99366.34;5038655;28;46091;-40
2023/10/28 11:31:29;;;;;;;;;4.00;1.00;;;;;14.72;72.28;99366.56;5038978;28;45419;-42